sensor_id;sensor_type;location;lat;lon;timestamp;P1;durP1;ratioP1;P2;durP2;ratioP2
26335;SDS011;14047;50.936;4.654;2023-05-02T00:00:45;48.75;;;22.05;;
26335;SDS011;14047;50.936;4.654;2023-05-02T00:03:12;49.50;;;23.20;;
26335;SDS011;14047;50.936;4.654;2023-05-02T00:05:38;50.85;;;22.38;;
26335;SDS011;14047;50.936;4.654;2023-05-02T00:08:05;48.00;;;22.65;;
26335;SDS011;14047;50.936;4.654;2023-05-02T00:10:31;49.72;;;21.63;;
26335;SDS011;14047;50.936;4.654;2023-05-02T00:12:57;49.70;;;22.42;;
26335;SDS011;14047;50.936;4.654;2023-05-02T00:15:23;52.67;;;20.95;;
26335;SDS011;14047;50.936;4.654;2023-05-02T00:17:51;45.38;;;20.95;;
26335;SDS011;14047;50.936;4.654;2023-05-02T00:20:17;49.05;;;21.65;;
26335;SDS011;14047;50.936;4.654;2023-05-02T00:22:43;49.00;;;21.50;;
26335;SDS011;14047;50.936;4.654;2023-05-02T00:25:09;50.63;;;21.30;;
26335;SDS011;14047;50.936;4.654;2023-05-02T00:27:40;51.92;;;23.27;;
26335;SDS011;14047;50.936;4.654;2023-05-02T00:30:07;55.25;;;24.05;;
26335;SDS011;14047;50.936;4.654;2023-05-02T00:32:33;57.45;;;24.80;;
26335;SDS011;14047;50.936;4.654;2023-05-02T00:34:59;56.03;;;24.23;;
26335;SDS011;14047;50.936;4.654;2023-05-02T00:37:25;59.75;;;24.92;;
26335;SDS011;14047;50.936;4.654;2023-05-02T00:39:53;58.30;;;24.35;;
26335;SDS011;14047;50.936;4.654;2023-05-02T00:42:19;57.13;;;25.42;;
26335;SDS011;14047;50.936;4.654;2023-05-02T00:44:45;59.70;;;25.23;;
26335;SDS011;14047;50.936;4.654;2023-05-02T00:47:11;56.85;;;25.70;;
26335;SDS011;14047;50.936;4.654;2023-05-02T00:49:38;61.92;;;25.35;;
26335;SDS011;14047;50.936;4.654;2023-05-02T00:52:04;57.80;;;25.65;;
26335;SDS011;14047;50.936;4.654;2023-05-02T00:54:31;58.92;;;26.23;;
26335;SDS011;14047;50.936;4.654;2023-05-02T00:56:57;68.68;;;27.13;;
26335;SDS011;14047;50.936;4.654;2023-05-02T00:59:23;64.32;;;26.00;;
26335;SDS011;14047;50.936;4.654;2023-05-02T01:01:52;56.60;;;25.95;;
26335;SDS011;14047;50.936;4.654;2023-05-02T01:07:41;59.63;;;26.95;;
26335;SDS011;14047;50.936;4.654;2023-05-02T01:13:23;61.83;;;27.85;;
26335;SDS011;14047;50.936;4.654;2023-05-02T01:15:54;72.55;;;29.38;;
26335;SDS011;14047;50.936;4.654;2023-05-02T01:18:23;63.60;;;29.33;;
26335;SDS011;14047;50.936;4.654;2023-05-02T01:20:55;71.50;;;28.33;;
26335;SDS011;14047;50.936;4.654;2023-05-02T01:23:27;59.35;;;28.38;;
26335;SDS011;14047;50.936;4.654;2023-05-02T01:29:07;63.78;;;28.73;;
26335;SDS011;14047;50.936;4.654;2023-05-02T01:31:43;66.10;;;29.00;;
26335;SDS011;14047;50.936;4.654;2023-05-02T01:34:12;64.72;;;29.98;;
26335;SDS011;14047;50.936;4.654;2023-05-02T01:36:42;58.80;;;28.55;;
26335;SDS011;14047;50.936;4.654;2023-05-02T01:39:14;73.97;;;30.95;;
26335;SDS011;14047;50.936;4.654;2023-05-02T01:41:49;73.47;;;31.38;;
26335;SDS011;14047;50.936;4.654;2023-05-02T01:44:17;69.43;;;29.45;;
26335;SDS011;14047;50.936;4.654;2023-05-02T01:46:47;69.57;;;30.95;;
26335;SDS011;14047;50.936;4.654;2023-05-02T01:49:15;68.93;;;30.95;;
26335;SDS011;14047;50.936;4.654;2023-05-02T01:51:45;71.40;;;30.23;;
26335;SDS011;14047;50.936;4.654;2023-05-02T01:54:14;76.07;;;31.02;;
26335;SDS011;14047;50.936;4.654;2023-05-02T01:56:41;65.57;;;31.67;;
26335;SDS011;14047;50.936;4.654;2023-05-02T01:59:10;67.28;;;30.45;;
26335;SDS011;14047;50.936;4.654;2023-05-02T02:01:39;66.88;;;30.00;;
26335;SDS011;14047;50.936;4.654;2023-05-02T02:04:08;73.40;;;30.95;;
26335;SDS011;14047;50.936;4.654;2023-05-02T02:06:35;66.93;;;29.40;;
26335;SDS011;14047;50.936;4.654;2023-05-02T02:09:01;65.68;;;29.35;;
26335;SDS011;14047;50.936;4.654;2023-05-02T02:11:48;69.35;;;30.08;;
26335;SDS011;14047;50.936;4.654;2023-05-02T02:14:19;70.30;;;29.33;;
26335;SDS011;14047;50.936;4.654;2023-05-02T02:16:47;65.22;;;26.98;;
26335;SDS011;14047;50.936;4.654;2023-05-02T02:19:15;62.83;;;29.02;;
26335;SDS011;14047;50.936;4.654;2023-05-02T02:21:42;60.85;;;28.02;;
26335;SDS011;14047;50.936;4.654;2023-05-02T02:24:11;64.45;;;28.55;;
26335;SDS011;14047;50.936;4.654;2023-05-02T02:26:39;66.13;;;29.02;;
26335;SDS011;14047;50.936;4.654;2023-05-02T02:29:07;65.82;;;31.05;;
26335;SDS011;14047;50.936;4.654;2023-05-02T02:31:33;63.72;;;28.90;;
26335;SDS011;14047;50.936;4.654;2023-05-02T02:34:00;60.08;;;28.63;;
26335;SDS011;14047;50.936;4.654;2023-05-02T02:36:32;63.17;;;28.58;;
26335;SDS011;14047;50.936;4.654;2023-05-02T02:42:13;67.13;;;30.48;;
26335;SDS011;14047;50.936;4.654;2023-05-02T02:47:23;61.25;;;28.42;;
26335;SDS011;14047;50.936;4.654;2023-05-02T02:55:18;72.55;;;30.33;;
26335;SDS011;14047;50.936;4.654;2023-05-02T03:00:56;70.05;;;29.67;;
26335;SDS011;14047;50.936;4.654;2023-05-02T03:03:24;67.22;;;30.45;;
26335;SDS011;14047;50.936;4.654;2023-05-02T03:05:56;70.88;;;30.05;;
26335;SDS011;14047;50.936;4.654;2023-05-02T03:08:23;74.75;;;31.48;;
26335;SDS011;14047;50.936;4.654;2023-05-02T03:10:49;71.45;;;30.90;;
26335;SDS011;14047;50.936;4.654;2023-05-02T03:13:15;68.55;;;31.23;;
26335;SDS011;14047;50.936;4.654;2023-05-02T03:15:52;66.28;;;30.13;;
26335;SDS011;14047;50.936;4.654;2023-05-02T03:18:43;67.00;;;29.67;;
26335;SDS011;14047;50.936;4.654;2023-05-02T03:21:09;61.03;;;30.25;;
26335;SDS011;14047;50.936;4.654;2023-05-02T03:23:35;68.60;;;30.77;;
26335;SDS011;14047;50.936;4.654;2023-05-02T03:26:01;61.03;;;29.00;;
26335;SDS011;14047;50.936;4.654;2023-05-02T03:28:27;62.63;;;29.20;;
26335;SDS011;14047;50.936;4.654;2023-05-02T03:30:53;64.97;;;27.85;;
26335;SDS011;14047;50.936;4.654;2023-05-02T03:33:20;59.67;;;28.75;;
26335;SDS011;14047;50.936;4.654;2023-05-02T03:35:46;55.25;;;24.20;;
26335;SDS011;14047;50.936;4.654;2023-05-02T03:38:12;46.47;;;23.48;;
26335;SDS011;14047;50.936;4.654;2023-05-02T03:40:38;49.78;;;23.77;;
26335;SDS011;14047;50.936;4.654;2023-05-02T03:43:08;48.55;;;23.25;;
26335;SDS011;14047;50.936;4.654;2023-05-02T03:45:35;51.53;;;23.88;;
26335;SDS011;14047;50.936;4.654;2023-05-02T03:48:01;48.88;;;23.65;;
26335;SDS011;14047;50.936;4.654;2023-05-02T03:50:28;48.42;;;23.98;;
26335;SDS011;14047;50.936;4.654;2023-05-02T03:52:54;55.20;;;24.02;;
26335;SDS011;14047;50.936;4.654;2023-05-02T03:55:29;53.35;;;24.48;;
26335;SDS011;14047;50.936;4.654;2023-05-02T03:57:56;44.67;;;23.50;;
26335;SDS011;14047;50.936;4.654;2023-05-02T04:00:22;51.60;;;24.33;;
26335;SDS011;14047;50.936;4.654;2023-05-02T04:02:55;46.72;;;24.35;;
26335;SDS011;14047;50.936;4.654;2023-05-02T04:05:25;55.55;;;25.92;;
26335;SDS011;14047;50.936;4.654;2023-05-02T04:07:50;54.70;;;26.10;;
26335;SDS011;14047;50.936;4.654;2023-05-02T04:10:17;53.88;;;25.20;;
26335;SDS011;14047;50.936;4.654;2023-05-02T04:12:49;54.83;;;25.08;;
26335;SDS011;14047;50.936;4.654;2023-05-02T04:15:17;58.75;;;27.00;;
26335;SDS011;14047;50.936;4.654;2023-05-02T04:17:45;50.85;;;24.80;;
26335;SDS011;14047;50.936;4.654;2023-05-02T04:20:12;52.65;;;24.88;;
26335;SDS011;14047;50.936;4.654;2023-05-02T04:22:42;49.30;;;23.95;;
26335;SDS011;14047;50.936;4.654;2023-05-02T04:25:09;58.42;;;24.50;;
26335;SDS011;14047;50.936;4.654;2023-05-02T04:27:37;50.20;;;23.70;;
26335;SDS011;14047;50.936;4.654;2023-05-02T04:30:06;51.05;;;23.13;;
26335;SDS011;14047;50.936;4.654;2023-05-02T04:32:32;47.15;;;22.48;;
26335;SDS011;14047;50.936;4.654;2023-05-02T04:35:00;56.25;;;23.90;;
26335;SDS011;14047;50.936;4.654;2023-05-02T04:37:26;49.53;;;23.00;;
26335;SDS011;14047;50.936;4.654;2023-05-02T04:39:52;50.08;;;23.52;;
26335;SDS011;14047;50.936;4.654;2023-05-02T04:42:22;52.83;;;24.75;;
26335;SDS011;14047;50.936;4.654;2023-05-02T04:44:57;54.78;;;25.77;;
26335;SDS011;14047;50.936;4.654;2023-05-02T04:47:24;66.70;;;28.75;;
26335;SDS011;14047;50.936;4.654;2023-05-02T04:49:50;55.08;;;26.20;;
26335;SDS011;14047;50.936;4.654;2023-05-02T04:52:16;64.80;;;27.85;;
26335;SDS011;14047;50.936;4.654;2023-05-02T04:54:43;66.63;;;32.05;;
26335;SDS011;14047;50.936;4.654;2023-05-02T04:57:09;70.30;;;32.70;;
26335;SDS011;14047;50.936;4.654;2023-05-02T04:59:39;69.30;;;32.10;;
26335;SDS011;14047;50.936;4.654;2023-05-02T05:02:06;64.53;;;32.00;;
26335;SDS011;14047;50.936;4.654;2023-05-02T05:04:32;72.50;;;31.90;;
26335;SDS011;14047;50.936;4.654;2023-05-02T05:06:59;65.20;;;32.35;;
26335;SDS011;14047;50.936;4.654;2023-05-02T05:09:27;74.85;;;32.13;;
26335;SDS011;14047;50.936;4.654;2023-05-02T05:11:53;60.53;;;29.58;;
26335;SDS011;14047;50.936;4.654;2023-05-02T05:14:19;62.03;;;30.67;;
26335;SDS011;14047;50.936;4.654;2023-05-02T05:16:49;64.15;;;30.27;;
26335;SDS011;14047;50.936;4.654;2023-05-02T05:19:16;67.50;;;31.58;;
26335;SDS011;14047;50.936;4.654;2023-05-02T05:21:41;59.53;;;28.10;;
26335;SDS011;14047;50.936;4.654;2023-05-02T05:24:08;65.28;;;27.88;;
26335;SDS011;14047;50.936;4.654;2023-05-02T05:26:34;57.38;;;26.85;;
26335;SDS011;14047;50.936;4.654;2023-05-02T05:29:01;49.25;;;25.67;;
26335;SDS011;14047;50.936;4.654;2023-05-02T05:31:32;45.38;;;22.45;;
26335;SDS011;14047;50.936;4.654;2023-05-02T05:33:59;46.83;;;23.13;;
26335;SDS011;14047;50.936;4.654;2023-05-02T05:36:27;44.83;;;22.55;;
26335;SDS011;14047;50.936;4.654;2023-05-02T05:38:53;42.70;;;22.50;;
26335;SDS011;14047;50.936;4.654;2023-05-02T05:41:19;40.35;;;20.65;;
26335;SDS011;14047;50.936;4.654;2023-05-02T05:43:50;42.78;;;21.92;;
26335;SDS011;14047;50.936;4.654;2023-05-02T05:46:16;42.42;;;21.55;;
26335;SDS011;14047;50.936;4.654;2023-05-02T05:48:42;43.25;;;22.42;;
26335;SDS011;14047;50.936;4.654;2023-05-02T05:51:09;39.03;;;19.48;;
26335;SDS011;14047;50.936;4.654;2023-05-02T05:53:35;35.83;;;20.45;;
26335;SDS011;14047;50.936;4.654;2023-05-02T05:56:11;38.60;;;19.23;;
26335;SDS011;14047;50.936;4.654;2023-05-02T05:58:41;33.20;;;15.88;;
26335;SDS011;14047;50.936;4.654;2023-05-02T06:01:10;27.23;;;15.50;;
26335;SDS011;14047;50.936;4.654;2023-05-02T06:03:37;23.52;;;14.85;;
26335;SDS011;14047;50.936;4.654;2023-05-02T06:06:03;27.63;;;14.02;;
26335;SDS011;14047;50.936;4.654;2023-05-02T06:08:29;25.30;;;13.02;;
26335;SDS011;14047;50.936;4.654;2023-05-02T06:10:55;25.48;;;13.45;;
26335;SDS011;14047;50.936;4.654;2023-05-02T06:13:21;27.20;;;13.50;;
26335;SDS011;14047;50.936;4.654;2023-05-02T06:15:48;21.35;;;12.23;;
26335;SDS011;14047;50.936;4.654;2023-05-02T06:18:14;18.60;;;11.55;;
26335;SDS011;14047;50.936;4.654;2023-05-02T06:20:41;26.88;;;11.20;;
26335;SDS011;14047;50.936;4.654;2023-05-02T06:23:07;21.67;;;11.55;;
26335;SDS011;14047;50.936;4.654;2023-05-02T06:25:35;23.13;;;10.75;;
26335;SDS011;14047;50.936;4.654;2023-05-02T06:28:02;21.10;;;11.40;;
26335;SDS011;14047;50.936;4.654;2023-05-02T06:30:28;22.88;;;12.10;;
26335;SDS011;14047;50.936;4.654;2023-05-02T06:32:54;16.73;;;9.20;;
26335;SDS011;14047;50.936;4.654;2023-05-02T06:35:20;21.02;;;8.07;;
26335;SDS011;14047;50.936;4.654;2023-05-02T06:37:46;18.67;;;8.73;;
26335;SDS011;14047;50.936;4.654;2023-05-02T06:40:12;17.92;;;8.75;;
26335;SDS011;14047;50.936;4.654;2023-05-02T06:42:38;17.35;;;8.25;;
26335;SDS011;14047;50.936;4.654;2023-05-02T06:45:04;18.77;;;7.43;;
26335;SDS011;14047;50.936;4.654;2023-05-02T06:47:31;17.10;;;7.70;;
26335;SDS011;14047;50.936;4.654;2023-05-02T06:49:57;12.88;;;6.72;;
26335;SDS011;14047;50.936;4.654;2023-05-02T06:52:23;13.57;;;5.88;;
26335;SDS011;14047;50.936;4.654;2023-05-02T06:54:49;14.15;;;6.05;;
26335;SDS011;14047;50.936;4.654;2023-05-02T06:57:15;13.60;;;5.63;;
26335;SDS011;14047;50.936;4.654;2023-05-02T06:59:41;22.90;;;6.50;;
26335;SDS011;14047;50.936;4.654;2023-05-02T07:02:07;11.13;;;4.88;;
26335;SDS011;14047;50.936;4.654;2023-05-02T07:04:33;16.77;;;4.45;;
26335;SDS011;14047;50.936;4.654;2023-05-02T07:06:59;14.77;;;4.57;;
26335;SDS011;14047;50.936;4.654;2023-05-02T07:09:25;16.75;;;4.65;;
26335;SDS011;14047;50.936;4.654;2023-05-02T07:11:51;10.45;;;3.70;;
26335;SDS011;14047;50.936;4.654;2023-05-02T07:14:17;10.13;;;3.88;;
26335;SDS011;14047;50.936;4.654;2023-05-02T07:16:42;10.30;;;3.97;;
26335;SDS011;14047;50.936;4.654;2023-05-02T07:19:08;12.93;;;4.13;;
26335;SDS011;14047;50.936;4.654;2023-05-02T07:21:34;12.20;;;4.88;;
26335;SDS011;14047;50.936;4.654;2023-05-02T07:24:00;11.00;;;3.55;;
26335;SDS011;14047;50.936;4.654;2023-05-02T07:26:27;10.60;;;3.70;;
26335;SDS011;14047;50.936;4.654;2023-05-02T07:28:52;13.18;;;3.50;;
26335;SDS011;14047;50.936;4.654;2023-05-02T07:31:18;9.20;;;3.10;;
26335;SDS011;14047;50.936;4.654;2023-05-02T07:33:44;8.32;;;3.15;;
26335;SDS011;14047;50.936;4.654;2023-05-02T07:36:10;9.45;;;3.40;;
26335;SDS011;14047;50.936;4.654;2023-05-02T07:38:36;7.10;;;3.10;;
26335;SDS011;14047;50.936;4.654;2023-05-02T07:41:02;7.05;;;2.92;;
26335;SDS011;14047;50.936;4.654;2023-05-02T07:43:28;15.27;;;2.60;;
26335;SDS011;14047;50.936;4.654;2023-05-02T07:45:54;7.40;;;2.65;;
26335;SDS011;14047;50.936;4.654;2023-05-02T07:48:20;9.82;;;3.00;;
26335;SDS011;14047;50.936;4.654;2023-05-02T07:50:46;7.68;;;2.70;;
26335;SDS011;14047;50.936;4.654;2023-05-02T07:53:12;7.32;;;2.53;;
26335;SDS011;14047;50.936;4.654;2023-05-02T07:55:38;9.95;;;2.47;;
26335;SDS011;14047;50.936;4.654;2023-05-02T07:58:04;9.05;;;2.55;;
26335;SDS011;14047;50.936;4.654;2023-05-02T08:00:30;5.45;;;2.40;;
26335;SDS011;14047;50.936;4.654;2023-05-02T08:02:56;8.85;;;2.85;;
26335;SDS011;14047;50.936;4.654;2023-05-02T08:05:22;7.70;;;2.80;;
26335;SDS011;14047;50.936;4.654;2023-05-02T08:07:47;7.68;;;3.20;;
26335;SDS011;14047;50.936;4.654;2023-05-02T08:10:13;6.25;;;2.80;;
26335;SDS011;14047;50.936;4.654;2023-05-02T08:12:39;7.20;;;2.72;;
26335;SDS011;14047;50.936;4.654;2023-05-02T08:15:06;7.15;;;3.08;;
26335;SDS011;14047;50.936;4.654;2023-05-02T08:17:34;4.82;;;2.90;;
26335;SDS011;14047;50.936;4.654;2023-05-02T08:20:00;6.10;;;3.17;;
26335;SDS011;14047;50.936;4.654;2023-05-02T08:22:26;6.00;;;3.25;;
26335;SDS011;14047;50.936;4.654;2023-05-02T08:24:52;9.13;;;3.20;;
26335;SDS011;14047;50.936;4.654;2023-05-02T08:27:18;9.45;;;3.33;;
26335;SDS011;14047;50.936;4.654;2023-05-02T08:29:44;6.97;;;3.55;;
26335;SDS011;14047;50.936;4.654;2023-05-02T08:32:10;7.43;;;3.63;;
26335;SDS011;14047;50.936;4.654;2023-05-02T08:34:36;7.65;;;3.50;;
26335;SDS011;14047;50.936;4.654;2023-05-02T08:37:06;4.95;;;2.63;;
26335;SDS011;14047;50.936;4.654;2023-05-02T08:39:33;5.70;;;3.17;;
26335;SDS011;14047;50.936;4.654;2023-05-02T08:41:59;7.78;;;3.13;;
26335;SDS011;14047;50.936;4.654;2023-05-02T08:44:25;7.40;;;2.63;;
26335;SDS011;14047;50.936;4.654;2023-05-02T08:46:51;10.38;;;3.30;;
26335;SDS011;14047;50.936;4.654;2023-05-02T08:49:18;5.68;;;2.40;;
26335;SDS011;14047;50.936;4.654;2023-05-02T08:51:47;8.13;;;2.47;;
26335;SDS011;14047;50.936;4.654;2023-05-02T08:54:16;8.65;;;2.50;;
26335;SDS011;14047;50.936;4.654;2023-05-02T08:56:42;7.10;;;2.35;;
26335;SDS011;14047;50.936;4.654;2023-05-02T08:59:09;8.57;;;2.65;;
26335;SDS011;14047;50.936;4.654;2023-05-02T09:01:35;10.85;;;2.58;;
26335;SDS011;14047;50.936;4.654;2023-05-02T09:04:04;7.53;;;2.40;;
26335;SDS011;14047;50.936;4.654;2023-05-02T09:06:30;3.90;;;1.98;;
26335;SDS011;14047;50.936;4.654;2023-05-02T09:08:58;9.82;;;2.53;;
26335;SDS011;14047;50.936;4.654;2023-05-02T09:11:25;8.60;;;2.72;;
26335;SDS011;14047;50.936;4.654;2023-05-02T09:13:51;10.20;;;2.80;;
26335;SDS011;14047;50.936;4.654;2023-05-02T09:16:21;10.15;;;2.30;;
26335;SDS011;14047;50.936;4.654;2023-05-02T09:21:20;10.70;;;2.67;;
26335;SDS011;14047;50.936;4.654;2023-05-02T09:23:48;6.45;;;2.45;;
26335;SDS011;14047;50.936;4.654;2023-05-02T09:26:16;6.35;;;2.10;;
26335;SDS011;14047;50.936;4.654;2023-05-02T09:29:01;7.10;;;2.42;;
26335;SDS011;14047;50.936;4.654;2023-05-02T09:31:33;8.05;;;2.80;;
26335;SDS011;14047;50.936;4.654;2023-05-02T09:34:09;7.20;;;2.15;;
26335;SDS011;14047;50.936;4.654;2023-05-02T09:36:43;5.90;;;2.50;;
26335;SDS011;14047;50.936;4.654;2023-05-02T09:39:16;6.78;;;2.22;;
26335;SDS011;14047;50.936;4.654;2023-05-02T09:41:44;6.90;;;2.30;;
26335;SDS011;14047;50.936;4.654;2023-05-02T09:44:12;7.72;;;2.40;;
26335;SDS011;14047;50.936;4.654;2023-05-02T09:46:43;8.60;;;2.63;;
26335;SDS011;14047;50.936;4.654;2023-05-02T09:49:10;13.57;;;3.17;;
26335;SDS011;14047;50.936;4.654;2023-05-02T09:51:39;8.00;;;2.70;;
26335;SDS011;14047;50.936;4.654;2023-05-02T09:54:05;10.57;;;2.83;;
26335;SDS011;14047;50.936;4.654;2023-05-02T09:56:33;11.45;;;2.78;;
26335;SDS011;14047;50.936;4.654;2023-05-02T09:59:20;7.78;;;2.85;;
26335;SDS011;14047;50.936;4.654;2023-05-02T10:01:56;10.13;;;2.80;;
26335;SDS011;14047;50.936;4.654;2023-05-02T10:04:27;15.27;;;4.32;;
26335;SDS011;14047;50.936;4.654;2023-05-02T10:06:55;11.88;;;3.55;;
26335;SDS011;14047;50.936;4.654;2023-05-02T10:09:22;11.60;;;3.22;;
26335;SDS011;14047;50.936;4.654;2023-05-02T10:11:51;9.40;;;3.40;;
26335;SDS011;14047;50.936;4.654;2023-05-02T10:14:18;7.18;;;3.38;;
26335;SDS011;14047;50.936;4.654;2023-05-02T10:17:09;7.53;;;3.40;;
26335;SDS011;14047;50.936;4.654;2023-05-02T10:19:38;8.27;;;4.00;;
26335;SDS011;14047;50.936;4.654;2023-05-02T10:22:12;9.13;;;3.90;;
26335;SDS011;14047;50.936;4.654;2023-05-02T10:24:38;9.60;;;4.05;;
26335;SDS011;14047;50.936;4.654;2023-05-02T10:27:05;6.90;;;3.65;;
26335;SDS011;14047;50.936;4.654;2023-05-02T10:29:32;10.00;;;4.13;;
26335;SDS011;14047;50.936;4.654;2023-05-02T10:31:59;10.85;;;4.13;;
26335;SDS011;14047;50.936;4.654;2023-05-02T10:34:27;8.55;;;3.70;;
26335;SDS011;14047;50.936;4.654;2023-05-02T10:36:56;5.45;;;3.47;;
26335;SDS011;14047;50.936;4.654;2023-05-02T10:39:26;7.95;;;3.50;;
26335;SDS011;14047;50.936;4.654;2023-05-02T10:41:56;8.35;;;3.65;;
26335;SDS011;14047;50.936;4.654;2023-05-02T10:44:33;10.48;;;3.83;;
26335;SDS011;14047;50.936;4.654;2023-05-02T10:47:00;9.63;;;3.65;;
26335;SDS011;14047;50.936;4.654;2023-05-02T10:49:52;10.95;;;4.00;;
26335;SDS011;14047;50.936;4.654;2023-05-02T10:54:51;5.03;;;3.20;;
26335;SDS011;14047;50.936;4.654;2023-05-02T10:57:16;8.23;;;3.40;;
26335;SDS011;14047;50.936;4.654;2023-05-02T10:59:42;7.60;;;3.63;;
26335;SDS011;14047;50.936;4.654;2023-05-02T11:05:06;9.18;;;3.80;;
26335;SDS011;14047;50.936;4.654;2023-05-02T11:07:33;7.38;;;3.38;;
26335;SDS011;14047;50.936;4.654;2023-05-02T11:12:42;6.53;;;2.58;;
26335;SDS011;14047;50.936;4.654;2023-05-02T11:15:10;11.63;;;2.65;;
26335;SDS011;14047;50.936;4.654;2023-05-02T11:20:28;6.68;;;3.00;;
26335;SDS011;14047;50.936;4.654;2023-05-02T11:22:56;7.53;;;2.80;;
26335;SDS011;14047;50.936;4.654;2023-05-02T11:25:27;6.97;;;2.72;;
26335;SDS011;14047;50.936;4.654;2023-05-02T11:28:01;8.15;;;3.08;;
26335;SDS011;14047;50.936;4.654;2023-05-02T11:30:37;12.50;;;2.90;;
26335;SDS011;14047;50.936;4.654;2023-05-02T11:35:29;7.15;;;2.80;;
26335;SDS011;14047;50.936;4.654;2023-05-02T11:37:56;8.23;;;3.13;;
26335;SDS011;14047;50.936;4.654;2023-05-02T11:40:25;7.38;;;2.70;;
26335;SDS011;14047;50.936;4.654;2023-05-02T11:42:52;5.70;;;2.60;;
26335;SDS011;14047;50.936;4.654;2023-05-02T11:45:18;7.88;;;3.00;;
26335;SDS011;14047;50.936;4.654;2023-05-02T11:47:45;12.38;;;2.90;;
26335;SDS011;14047;50.936;4.654;2023-05-02T11:50:13;7.10;;;2.78;;
26335;SDS011;14047;50.936;4.654;2023-05-02T11:52:40;7.70;;;3.35;;
26335;SDS011;14047;50.936;4.654;2023-05-02T11:55:09;7.00;;;2.65;;
26335;SDS011;14047;50.936;4.654;2023-05-02T11:57:37;7.63;;;3.55;;
26335;SDS011;14047;50.936;4.654;2023-05-02T12:00:03;8.07;;;3.10;;
26335;SDS011;14047;50.936;4.654;2023-05-02T12:02:38;6.95;;;2.63;;
26335;SDS011;14047;50.936;4.654;2023-05-02T12:05:13;6.55;;;2.67;;
26335;SDS011;14047;50.936;4.654;2023-05-02T12:10:15;6.88;;;2.72;;
26335;SDS011;14047;50.936;4.654;2023-05-02T12:12:42;4.40;;;2.70;;
26335;SDS011;14047;50.936;4.654;2023-05-02T12:15:09;6.45;;;2.40;;
26335;SDS011;14047;50.936;4.654;2023-05-02T12:17:36;6.35;;;3.08;;
26335;SDS011;14047;50.936;4.654;2023-05-02T12:20:05;6.78;;;2.67;;
26335;SDS011;14047;50.936;4.654;2023-05-02T12:22:33;11.27;;;3.38;;
26335;SDS011;14047;50.936;4.654;2023-05-02T12:24:59;9.05;;;2.85;;
26335;SDS011;14047;50.936;4.654;2023-05-02T12:27:25;10.25;;;3.38;;
26335;SDS011;14047;50.936;4.654;2023-05-02T12:29:52;10.93;;;3.17;;
26335;SDS011;14047;50.936;4.654;2023-05-02T12:32:27;14.02;;;3.03;;
26335;SDS011;14047;50.936;4.654;2023-05-02T12:34:55;8.70;;;2.88;;
26335;SDS011;14047;50.936;4.654;2023-05-02T12:37:25;12.90;;;3.15;;
26335;SDS011;14047;50.936;4.654;2023-05-02T12:39:52;7.13;;;3.00;;
26335;SDS011;14047;50.936;4.654;2023-05-02T12:42:20;5.47;;;2.70;;
26335;SDS011;14047;50.936;4.654;2023-05-02T12:44:48;8.25;;;2.55;;
26335;SDS011;14047;50.936;4.654;2023-05-02T12:47:18;7.82;;;2.80;;
26335;SDS011;14047;50.936;4.654;2023-05-02T12:49:47;8.95;;;3.20;;
26335;SDS011;14047;50.936;4.654;2023-05-02T12:52:19;7.65;;;3.40;;
26335;SDS011;14047;50.936;4.654;2023-05-02T12:54:46;8.77;;;3.53;;
26335;SDS011;14047;50.936;4.654;2023-05-02T12:57:25;12.43;;;3.13;;
26335;SDS011;14047;50.936;4.654;2023-05-02T12:59:52;9.02;;;3.67;;
26335;SDS011;14047;50.936;4.654;2023-05-02T13:02:21;13.35;;;3.60;;
26335;SDS011;14047;50.936;4.654;2023-05-02T13:04:47;10.00;;;3.00;;
26335;SDS011;14047;50.936;4.654;2023-05-02T13:07:13;8.98;;;4.05;;
26335;SDS011;14047;50.936;4.654;2023-05-02T13:09:39;9.60;;;2.92;;
26335;SDS011;14047;50.936;4.654;2023-05-02T13:12:05;7.45;;;3.45;;
26335;SDS011;14047;50.936;4.654;2023-05-02T13:14:32;13.68;;;4.50;;
26335;SDS011;14047;50.936;4.654;2023-05-02T13:16:58;8.80;;;3.35;;
26335;SDS011;14047;50.936;4.654;2023-05-02T13:19:24;9.93;;;3.50;;
26335;SDS011;14047;50.936;4.654;2023-05-02T13:21:50;9.10;;;3.70;;
26335;SDS011;14047;50.936;4.654;2023-05-02T13:24:15;5.07;;;3.00;;
26335;SDS011;14047;50.936;4.654;2023-05-02T13:26:42;5.30;;;2.85;;
26335;SDS011;14047;50.936;4.654;2023-05-02T13:29:08;5.90;;;3.00;;
26335;SDS011;14047;50.936;4.654;2023-05-02T13:31:36;12.35;;;3.92;;
26335;SDS011;14047;50.936;4.654;2023-05-02T13:34:02;8.05;;;3.17;;
26335;SDS011;14047;50.936;4.654;2023-05-02T13:36:29;10.82;;;4.05;;
26335;SDS011;14047;50.936;4.654;2023-05-02T13:38:55;17.23;;;4.47;;
26335;SDS011;14047;50.936;4.654;2023-05-02T13:41:21;6.70;;;3.67;;
26335;SDS011;14047;50.936;4.654;2023-05-02T13:43:48;8.57;;;3.15;;
26335;SDS011;14047;50.936;4.654;2023-05-02T13:46:15;8.65;;;3.75;;
26335;SDS011;14047;50.936;4.654;2023-05-02T13:48:41;10.63;;;3.88;;
26335;SDS011;14047;50.936;4.654;2023-05-02T13:51:07;7.55;;;3.15;;
26335;SDS011;14047;50.936;4.654;2023-05-02T13:53:33;12.15;;;3.35;;
26335;SDS011;14047;50.936;4.654;2023-05-02T13:56:00;10.88;;;3.75;;
26335;SDS011;14047;50.936;4.654;2023-05-02T13:58:26;6.95;;;3.30;;
26335;SDS011;14047;50.936;4.654;2023-05-02T14:00:52;9.77;;;3.70;;
26335;SDS011;14047;50.936;4.654;2023-05-02T14:03:18;8.48;;;3.20;;
26335;SDS011;14047;50.936;4.654;2023-05-02T14:05:44;9.73;;;3.22;;
26335;SDS011;14047;50.936;4.654;2023-05-02T14:08:10;9.32;;;3.85;;
26335;SDS011;14047;50.936;4.654;2023-05-02T14:10:36;9.05;;;3.65;;
26335;SDS011;14047;50.936;4.654;2023-05-02T14:13:03;9.75;;;3.90;;
26335;SDS011;14047;50.936;4.654;2023-05-02T14:15:29;7.53;;;3.65;;
26335;SDS011;14047;50.936;4.654;2023-05-02T14:17:56;8.75;;;3.40;;
26335;SDS011;14047;50.936;4.654;2023-05-02T14:20:22;7.75;;;2.97;;
26335;SDS011;14047;50.936;4.654;2023-05-02T14:22:48;10.73;;;3.90;;
26335;SDS011;14047;50.936;4.654;2023-05-02T14:25:14;10.15;;;3.67;;
26335;SDS011;14047;50.936;4.654;2023-05-02T14:27:40;11.27;;;3.63;;
26335;SDS011;14047;50.936;4.654;2023-05-02T14:30:07;9.00;;;3.63;;
26335;SDS011;14047;50.936;4.654;2023-05-02T14:32:33;13.23;;;4.22;;
26335;SDS011;14047;50.936;4.654;2023-05-02T14:34:59;8.82;;;3.30;;
26335;SDS011;14047;50.936;4.654;2023-05-02T14:37:25;11.05;;;3.40;;
26335;SDS011;14047;50.936;4.654;2023-05-02T14:39:51;9.60;;;3.40;;
26335;SDS011;14047;50.936;4.654;2023-05-02T14:42:26;13.50;;;3.55;;
26335;SDS011;14047;50.936;4.654;2023-05-02T14:44:52;8.02;;;3.53;;
26335;SDS011;14047;50.936;4.654;2023-05-02T14:47:18;10.18;;;3.97;;
26335;SDS011;14047;50.936;4.654;2023-05-02T14:49:44;8.43;;;3.30;;
26335;SDS011;14047;50.936;4.654;2023-05-02T14:52:10;7.70;;;3.45;;
26335;SDS011;14047;50.936;4.654;2023-05-02T14:54:36;6.10;;;3.47;;
26335;SDS011;14047;50.936;4.654;2023-05-02T14:57:02;9.38;;;4.40;;
26335;SDS011;14047;50.936;4.654;2023-05-02T14:59:28;10.63;;;3.50;;
26335;SDS011;14047;50.936;4.654;2023-05-02T15:01:55;6.30;;;3.38;;
26335;SDS011;14047;50.936;4.654;2023-05-02T15:04:21;8.88;;;3.55;;
26335;SDS011;14047;50.936;4.654;2023-05-02T15:06:48;8.43;;;3.72;;
26335;SDS011;14047;50.936;4.654;2023-05-02T15:09:14;9.18;;;3.30;;
26335;SDS011;14047;50.936;4.654;2023-05-02T15:11:41;7.47;;;2.70;;
26335;SDS011;14047;50.936;4.654;2023-05-02T15:14:07;8.27;;;3.20;;
26335;SDS011;14047;50.936;4.654;2023-05-02T15:16:33;9.18;;;3.17;;
26335;SDS011;14047;50.936;4.654;2023-05-02T15:19:01;9.23;;;3.40;;